Estación Meteorológica Peña el Pijo (Robertgarden) [ 09/23/17 05:55:40 CEST ]

Fecha Hora Presion(HPa) Temp (°C) Humedad % Rocio (°C) Viento ( m/s) Direccion Lluvia 1Hora(mm) Lluvia 24H(mm) LLuvia Total(mm)
2017-Apr-30 01:01:54 1004.800 5.8 90 4.3       8.28 1390.31
2017-Apr-30 02:02:01 1004.900 4.5 90 3.0       8.28 1390.31
2017-Apr-30 03:01:40 1004.300 3.8 91 2.4       8.28 1390.31
2017-Apr-30 04:01:43 1004.300 3.0 91 1.7       7.77 1390.31
2017-Apr-30 05:01:47 1004.500 2.9 91 1.6       7.77 1390.31
2017-Apr-30 06:03:59 1004.300 2.6 91 1.2     0.51 8.28 1390.83
2017-Apr-30 07:01:51 1004.500 2.5 91 1.2       8.28 1390.83
2017-Apr-30 08:01:47 1004.900 3.5 92 2.3       7.77 1390.83
2017-Apr-30 09:02:05 1004.600 6.9 93 5.8       7.25 1390.83
2017-Apr-30 10:01:46 1004.400 10.9 92 9.6 3.1 WNW   7.25 1390.83
2017-Apr-30 11:01:48 1004.600 14.1 72 9.1       7.25 1390.83
2017-Apr-30 12:01:55 1004.600 15.4 57 6.9 0.5 NNW   7.25 1390.83
2017-Apr-30 13:01:55 1004.100 17.3 47 5.8       7.25 1390.83
2017-Apr-30 14:01:48 1003.900 17.8 39 3.6 1.7 NW   7.25 1390.83
2017-Apr-30 15:01:50 1003.700 18.9 36 3.4       7.25 1390.83
2017-Apr-30 16:01:53 1003.700 17.8 38 3.2       5.18 1390.83
2017-Apr-30 17:01:36 1003.800 17.3 45 5.2 0.5 W   5.18 1390.83
2017-Apr-30 18:01:52 1003.500 16.0 52 6.1 2.6 WNW   3.10 1390.83
2017-Apr-30 19:01:39 1003.600 13.6 60 6.0       1.03 1390.83
2017-Apr-30 20:01:42 1003.500 12.4 65 6.0       0.51 1390.83
2017-Apr-30 21:01:42 1003.900 11.9 68 6.2 1.9 WSW   0.51 1390.83
2017-Apr-30 22:01:53 1004.400 11.8 68 6.1       0.51 1390.83
2017-Apr-30 23:01:38 1005.200 11.9 68 6.2       0.51 1390.83

Temperatura Máxima:18°    Temperatura Mínima:
Presión Máxima:1005.200 Hpa    Presión Mínima:1003.500 Hpa


Volver